Flag for Russia

Past Weather in 51°39'17.5"N, 39°12'46.6"E, Russia — Yesterday and Last 2 Weeks

Currently: 37 °F. Sunny. (Weather station: Voronez, Russia). See more current weather

Past Weather in 51°39'17.5"N, 39°12'46.6"E — Graph

°F

51°39'17.5"N, 39°12'46.6"E Temperature Yesterday

Maximum temperature yesterday: 36 °F (at 4:30 pm)
Minimum temperature yesterday: 14 °F (at 6:30 am)
Average temperature yesterday: 25 °F

High & Low Weather Summary for the Past Weeks

 TemperatureHumidityPressure
High36 °F (Feb 24, 2:00 pm)100% (Feb 14, 3:30 pm)30.63 "Hg (Feb 14, 3:30 pm)
Low14 °F (Feb 27, 6:30 am)44% (Feb 27, 3:00 pm)30.12 "Hg (Feb 18, 1:00 pm)
Average25 °F75%30.40 "Hg
* Reported Feb 14 2:00 pm — Feb 29 2:30 pm, 51°39'17.5"N, 39°12'46.6"E. Weather by CustomWeather, © 2024

Note: Actual official high and low records may vary slightly from our data, if they occured in-between our weather recording intervals... More about our weather records

51°39'17.5"N, 39°12'46.6"E Weather History for the Previous 24 Hours

Scroll right to see more
 ConditionsComfort  
Time TempWeatherWind HumidityBarometerVisibility
2:30 pm
Thu, Feb 29
36 °FSunny.8 mph60%30.42 "Hg10 mi
2:00 pm34 °FSunny.6 mph65%30.42 "Hg10 mi
1:30 pm34 °FSunny.6 mph60%30.42 "Hg10 mi
1:00 pm32 °FSunny.10 mph64%30.42 "Hg10 mi
12:30 pm32 °FSunny.8 mph60%30.42 "Hg10 mi
12:00 pm32 °FSunny.8 mph64%30.45 "Hg10 mi
11:30 am30 °FSunny.8 mph64%30.45 "Hg10 mi
11:00 am28 °FSunny.6 mph64%30.45 "Hg10 mi
10:30 am27 °FSunny.6 mph69%30.45 "Hg10 mi
10:00 am25 °FSunny.6 mph69%30.45 "Hg10 mi
9:30 am23 °FSunny.6 mph74%30.45 "Hg10 mi
9:00 am21 °FSunny.6 mph74%30.45 "Hg10 mi
8:30 am19 °FSunny.6 mph79%30.45 "Hg10 mi
7:30 am18 °FSunny.6 mph79%30.45 "Hg10 mi
7:00 am18 °FClear.6 mph86%30.45 "Hg10 mi
6:30 am18 °FClear.6 mph79%30.45 "Hg10 mi
6:00 am18 °FClear.6 mph79%30.45 "Hg10 mi
5:30 am19 °FClear.6 mph73%30.45 "Hg10 mi
3:00 am18 °FClear.6 mph79%30.45 "Hg10 mi
2:30 am18 °FClear.6 mph79%30.45 "Hg10 mi
2:00 am19 °FClear.6 mph73%30.45 "Hg10 mi
1:30 am19 °FClear.8 mph73%30.48 "Hg10 mi
1:00 am23 °FClear.8 mph68%30.48 "Hg10 mi
12:30 am23 °FClear.8 mph68%30.45 "Hg10 mi
12:00 am27 °FClear.10 mph64%30.45 "Hg10 mi
11:30 pm
Wed, Feb 28
27 °FClear.10 mph59%30.45 "Hg10 mi
11:00 pm27 °FClear.8 mph59%30.48 "Hg10 mi
10:30 pm27 °FClear.10 mph59%30.48 "Hg10 mi
10:00 pm25 °FClear.10 mph63%30.48 "Hg10 mi
9:30 pm28 °FClear.10 mph59%30.48 "Hg10 mi
9:00 pm30 °FClear.8 mph55%30.48 "Hg10 mi
8:30 pm30 °FClear.8 mph55%30.48 "Hg10 mi
8:00 pm30 °FClear.8 mph55%30.48 "Hg10 mi
7:30 pm30 °FClear.10 mph55%30.48 "Hg10 mi
7:00 pm30 °FClear.10 mph55%30.48 "Hg10 mi
6:30 pm30 °FClear.8 mph55%30.48 "Hg10 mi
6:00 pm28 °FClear.8 mph59%30.48 "Hg10 mi
5:30 pm34 °FSunny.6 mph48%30.48 "Hg10 mi
5:00 pm36 °FSunny.8 mph44%30.48 "Hg10 mi
4:30 pm36 °FSunny.8 mph48%30.48 "Hg10 mi
4:00 pm34 °FSunny.8 mph51%30.51 "Hg10 mi
3:30 pm32 °FSunny.8 mph60%30.51 "Hg10 mi
3:00 pm32 °FSunny.10 mph60%30.51 "Hg10 mi
Weather by CustomWeather, © 2024

See weather overview